Flight Track Log - Related Links

Times and Time Zones

All times are in EDT time to prevent confusion due to time zone crossing. See the ASQ2566 flight status page for this flight to view local times or setup timezone preferences in your user account.

Time Position Orientation Groundspeed Altitude Reporting Facility
EDT Latitude Longitude Course Direction KTS MPH feet Rate Location/Type
Wed 09:58:02 PM 30.5642 -91.1058 323° Northwest 260 299 3,400  Level Houston Center
Wed 09:59:04 PM 30.6225 -91.1647 319° Northwest 279 321 6,100 2,634 Climbing Houston Center
Wed 10:00:05 PM 30.6814 -91.2325 315° West 291 335 8,800 2,488 Climbing Houston Center
Wed 10:01:07 PM 30.7528 -91.3117 316° Northwest 301 346 11,200 2,226 Climbing Houston Center
Wed 10:02:09 PM 30.8175 -91.3856 316° Northwest 319 367 13,400 1,805 Climbing Houston Center
Wed 10:03:00 PM 30.9378 -91.5581 323° Northwest  Level FlightAware Approximate
Wed 10:03:10 PM 30.8811 -91.4633 314° West 331 381 14,900  Level Houston Center
Wed 10:04:12 PM 30.8447 -91.5561 245° Southwest 304 350 16,400 1,452 Climbing Houston Center
Wed 10:05:14 PM 30.8006 -91.6461 240° Southwest 312 359 17,900 1,512 Climbing Houston Center
Wed 10:06:15 PM 30.7578 -91.7406 242° Southwest 323 372 19,500 1,512 Climbing Houston Center
Wed 10:07:17 PM 30.7158 -91.8339 242° Southwest 325 374 21,000 1,512 Climbing Houston Center
Wed 10:08:18 PM 30.6653 -91.9489 243° Southwest 328 377 22,600 1,268 Climbing Houston Center
Wed 10:09:20 PM 30.6214 -92.0464 242° Southwest 335 386 23,600 976 Climbing Houston Center
Wed 10:10:21 PM 30.5756 -92.1478 242° Southwest 348 400 24,600 976 Climbing Houston Center
Wed 10:11:23 PM 30.5300 -92.2478 242° Southwest 350 403 25,600 677 Climbing Houston Center
Wed 10:12:25 PM 30.4839 -92.3506 243° Southwest 354 407 26,000 195 Climbing Houston Center
Wed 10:13:26 PM 30.4328 -92.4619 242° Southwest 375 432 26,000 439 Level Houston Center
Wed 10:14:28 PM 30.3822 -92.5728 242° Southwest 388 447 26,900 1,268 Climbing Houston Center
Wed 10:15:29 PM 30.3336 -92.6781 242° Southwest 379 436 28,600 1,463 Climbing Houston Center
Wed 10:16:31 PM 30.2903 -92.7764 243° Southwest 355 409 29,900 683 Climbing Houston Center
Wed 10:17:32 PM 30.2347 -92.8658 234° Southwest 345 397 30,000 49 Climbing Houston Center
Wed 10:18:34 PM 30.1717 -92.9853 239° Southwest 365 420 30,000  Level Houston Center
Wed 10:19:35 PM 30.1253 -93.0875 242° Southwest 360 414 30,000  Level Houston Center
Wed 10:20:37 PM 30.0772 -93.1922 242° Southwest 366 421 30,000  Level Houston Center
Wed 10:21:38 PM 30.0283 -93.2969 242° Southwest 368 423 30,000  Level Houston Center
Wed 10:22:40 PM 29.9803 -93.4019 242° Southwest 367 422 30,000  Level Houston Center
Wed 10:23:41 PM 29.9325 -93.5075 242° Southwest 369 425 30,000  Level Houston Center
Wed 10:24:45 PM 29.8833 -93.6122 242° Southwest 369 425 30,000  Level Houston Center
Wed 10:25:44 PM 29.8353 -93.7167 242° Southwest 369 425 30,000  Level Houston Center
Wed 10:26:46 PM 29.7717 -93.8092 232° Southwest 376 433 30,000  Level Houston Center
Wed 10:27:47 PM 29.7336 -93.9125 247° West 389 448 30,000  Level Houston Center
Wed 10:28:50 PM 29.7472 -94.0294 278° West 374 430 30,000  Level Houston Center
Wed 10:29:50 PM 29.7639 -94.1742 278° West 380 437 30,000  Level Houston Center
Wed 10:30:52 PM 29.7853 -94.2739 284° West 382 440 30,000  Level Houston Center
Wed 10:31:53 PM 29.8114 -94.4161 282° West 382 440 30,000  Level Houston Center
Wed 10:32:54 PM 29.8492 -94.5325 291° West 394 453 30,000  Level Houston Center
Wed 10:33:56 PM 29.9006 -94.6428 298° West 395 455 30,000  Level Houston Center
Wed 10:34:57 PM 29.9631 -94.7489 304° West 402 463 30,000  Level Houston Center
Wed 10:35:59 PM 30.0194 -94.8553 301° West 409 471 30,000  Level Houston Center
Wed 10:37:00 PM 30.0367 -94.9744 280° West 387 445 30,000  Level Houston Center
Wed 10:38:02 PM 30.0414 -95.0933 273° West 376 433 30,000  Level Houston Center
Wed 10:39:03 PM 29.9983 -95.2242 249° West 364 419 30,000  Level Houston Center
Wed 10:40:04 PM 30.0011 -95.3381 272° West 389 448 30,000  Level Houston Center
Wed 10:41:06 PM 30.1061 -95.4033 332° Northwest 454 522 30,000  Level Houston Center
Wed 10:42:07 PM 30.2281 -95.4511 341° North 462 532 30,000  Level Houston Center
Wed 10:43:09 PM 30.3492 -95.4994 341° North 461 531 30,000  Level Houston Center
Wed 10:44:10 PM 30.4706 -95.5436 343° North 458 527 30,000  Level Houston Center
Wed 10:45:11 PM 30.5939 -95.5914 342° North 465 535 30,000  Level Houston Center
Wed 10:46:13 PM 30.7319 -95.6453 341° North 466 536 30,000  Level Houston Center
Wed 10:47:14 PM 30.8553 -95.6933 342° North 465 535 30,000  Level Houston Center
Wed 10:48:16 PM 30.9817 -95.7419 342° North 473 544 30,000  Level Houston Center
Wed 10:49:17 PM 31.1078 -95.7914 341° North 473 544 30,000  Level Houston Center
Wed 10:49:44 PM 31.1803 -95.8181 343° North 471 542 30,000 -552 Level Fort Worth Center
Wed 10:50:44 PM 31.2919 -95.8964 329° Northwest 463 533 29,200 -900 Descending Fort Worth Center
Wed 10:51:44 PM 31.4056 -95.9750 329° Northwest 472 543 28,200 -1,000 Descending Fort Worth Center
Wed 10:52:44 PM 31.5192 -96.0486 331° Northwest 472 543 27,200 -1,000 Descending Fort Worth Center
Wed 10:53:44 PM 31.6511 -96.0833 347° North 472 543 26,200 -1,750 Descending Fort Worth Center
Wed 10:54:44 PM 31.7847 -96.0983 355° North 478 550 23,700 -2,450 Descending Fort Worth Center
Wed 10:55:44 PM 31.9186 -96.1064 357° North 478 550 21,300 -2,350 Descending Fort Worth Center
Wed 10:56:44 PM 32.0375 -96.0972 North 453 521 19,000 -2,250 Descending Fort Worth Center
Wed 10:57:44 PM 32.1561 -96.0833 North 429 494 16,800 -1,500 Descending Fort Worth Center
Wed 10:58:44 PM 32.2297 -96.1364 329° Northwest 347 399 16,000 -1,350 Descending Fort Worth Center
Wed 10:59:44 PM 32.2853 -96.2461 301° West 330 380 14,100 -1,750 Descending Fort Worth Center
Wed 11:00:44 PM 32.3256 -96.3317 299° West 339 390 12,500 -1,400 Descending Fort Worth Center
Wed 11:01:44 PM 32.3681 -96.4222 299° West 305 351 11,300 -800 Descending Fort Worth Center
Wed 11:02:44 PM 32.4125 -96.4906 308° West 292 336 10,900 -850 Descending Fort Worth Center
Wed 11:03:44 PM 32.4528 -96.5789 298° West 280 322 9,600 -1,000 Descending Fort Worth Center
Wed 11:04:44 PM 32.4803 -96.6400 298° West 252 290 8,900 -1,350 Descending Fort Worth Center
Wed 11:05:44 PM 32.4994 -96.7114 288° West 225 259 6,900 -1,600 Descending Fort Worth Center
Wed 11:06:44 PM 32.4956 -96.7756 266° West 214 246 5,700 -950 Descending Fort Worth Center
Wed 11:07:44 PM 32.4878 -96.8544 263° West 219 252 5,000 -350 Descending Fort Worth Center
Wed 11:08:44 PM 32.5067 -96.9208 289° West 214 246 5,000 -200 Level Fort Worth Center
Wed 11:09:44 PM 32.5342 -96.9797 299° West 214 246 4,600 -500 Descending Fort Worth Center
Wed 11:10:44 PM 32.5803 -97.0139 328° Northwest 193 222 4,000 -238 Descending Fort Worth Center
Wed 11:11:50 PM 32.6333 -97.0333 343° North 196 226 4,100 48 Climbing Dallas / Fort Worth TRACON
Wed 11:12:50 PM 32.6833 -97.0333 360° North 155 178 4,100 -198 Level Dallas / Fort Worth TRACON
Wed 11:13:51 PM 32.7333 -97.0333 360° North 156 180 3,700 -639 Descending Dallas / Fort Worth TRACON
Wed 11:14:52 PM 32.7667 -97.0333 360° North 152 175 2,800 -843 Descending Dallas / Fort Worth TRACON
Wed 11:15:52 PM 32.8000 -97.0333 360° North 126 145 2,000 -694 Descending Dallas / Fort Worth TRACON
Wed 11:16:53 PM 32.8333 -97.0333 360° North 114 131 1,400 -590 Descending Dallas / Fort Worth TRACON
Wed 11:18:00 PM 32.8833 -97.0333 308° West  Level FlightAware Approximate
Wed 11:25:00 PM 32.8968 -97.0380 308° West  Level Estimated
Wed 11:26:00 PM 32.8968 -97.0380 308° West  Level Estimated

Login

Don't have an account? Register now (free) for customized features, flight alerts, and more!